TimeMDT,TemperatureF,Dew PointF,Humidity,Sea Level PressureIn,VisibilityMPH,Wind Direction,Wind SpeedMPH,Gust SpeedMPH,PrecipitationIn,Events,Conditions,WindDirDegrees,DateUTC
12:53 AM,64.0,43.0,46,29.88,10.0,ESE,3.5,-,N/A,,Overcast,120,2013-08-21 06:53:00
1:53 AM,62.1,44.1,52,29.88,10.0,Calm,Calm,-,N/A,,Overcast,0,2013-08-21 07:53:00
2:53 AM,63.0,45.0,52,29.89,10.0,NE,6.9,-,N/A,,Overcast,40,2013-08-21 08:53:00
3:53 AM,62.1,44.1,52,29.90,10.0,ENE,9.2,-,N/A,,Overcast,70,2013-08-21 09:53:00
4:53 AM,61.0,46.0,58,29.92,10.0,ENE,4.6,-,0.00,,Overcast,60,2013-08-21 10:53:00
5:53 AM,57.9,45.0,62,29.95,10.0,South,4.6,-,N/A,,Scattered Clouds,170,2013-08-21 11:53:00
6:53 AM,59.0,46.0,62,29.96,10.0,ESE,3.5,-,N/A,,Clear,110,2013-08-21 12:53:00
7:53 AM,62.1,46.9,58,29.98,10.0,WSW,4.6,-,N/A,,Clear,250,2013-08-21 13:53:00
8:53 AM,69.1,44.1,40,29.95,10.0,WSW,3.5,-,N/A,,Partly Cloudy,250,2013-08-21 14:53:00
9:53 AM,73.0,44.1,35,29.94,10.0,Variable,6.9,-,N/A,,Clear,0,2013-08-21 15:53:00
10:53 AM,75.0,44.1,33,29.94,10.0,Variable,6.9,-,N/A,,Clear,0,2013-08-21 16:53:00
11:53 AM,78.1,44.1,30,29.94,10.0,NW,11.5,20.7,N/A,,Mostly Cloudy,310,2013-08-21 17:53:00
12:53 PM,77.0,44.1,31,29.94,10.0,West,9.2,-,N/A,,Mostly Cloudy,260,2013-08-21 18:53:00
1:53 PM,77.0,39.9,26,29.93,10.0,WSW,4.6,-,N/A,,Partly Cloudy,250,2013-08-21 19:53:00
2:48 PM,78.8,42.8,28,30.27,10.0,Variable,4.6,-,N/A,Thunderstorm,Scattered Clouds,0,2013-08-21 20:48:00
2:53 PM,78.1,43.0,29,29.90,10.0,Calm,Calm,-,N/A,Thunderstorm,Mostly Cloudy,0,2013-08-21 20:53:00
3:03 PM,77.0,42.8,29,30.27,10.0,Variable,3.5,-,N/A,,Mostly Cloudy,0,2013-08-21 21:03:00
3:15 PM,71.6,46.4,41,30.27,10.0,North,16.1,27.6,0.00,Rain-Thunderstorm,Light Thunderstorms and Rain,10,2013-08-21 21:15:00
3:51 PM,75.2,44.6,34,30.27,10.0,ESE,9.2,-,0.00,,Overcast,110,2013-08-21 21:51:00
3:53 PM,75.9,44.1,32,29.92,10.0,East,10.4,-,0.00,,Overcast,100,2013-08-21 21:53:00
4:53 PM,75.0,46.9,37,29.91,10.0,ESE,9.2,-,0.00,,Clear,120,2013-08-21 22:53:00
5:53 PM,75.9,48.9,38,29.91,10.0,ESE,11.5,-,N/A,,Clear,110,2013-08-21 23:53:00
6:53 PM,73.0,48.0,41,29.92,10.0,SE,12.7,-,N/A,,Partly Cloudy,130,2013-08-22 00:53:00
7:53 PM,68.0,50.0,52,29.95,10.0,East,18.4,-,N/A,,Mostly Cloudy,90,2013-08-22 01:53:00
8:40 PM,62.6,51.8,68,30.29,10.0,East,9.2,-,N/A,Thunderstorm,Scattered Clouds,90,2013-08-22 02:40:00
8:53 PM,63.0,51.1,65,29.97,10.0,East,10.4,-,N/A,,Mostly Cloudy,100,2013-08-22 02:53:00
9:53 PM,61.0,50.0,67,29.99,10.0,ENE,12.7,-,N/A,,Scattered Clouds,60,2013-08-22 03:53:00
10:53 PM,59.0,48.9,69,30.00,10.0,East,8.1,-,N/A,,Clear,100,2013-08-22 04:53:00
11:53 PM,57.9,48.0,70,29.99,10.0,SE,4.6,-,N/A,,Clear,130,2013-08-22 05:53:00